createdAt,value
2022-12-24T00:00:16.713Z,19.95
2022-12-24T00:03:25.717Z,18.23
2022-12-24T00:06:40.729Z,17.17
2022-12-24T00:09:49.437Z,16.58
2022-12-24T00:12:57.722Z,18.83
2022-12-24T00:16:06.907Z,17.27
2022-12-24T00:19:21.974Z,17.77
2022-12-24T00:22:23.924Z,17.52
2022-12-24T00:25:38.751Z,17.27
2022-12-24T00:28:41.033Z,17.50
2022-12-24T00:31:55.765Z,18.20
2022-12-24T00:35:04.598Z,17.80
2022-12-24T00:38:13.715Z,17.25
2022-12-24T00:41:28.743Z,17.83
2022-12-24T00:44:36.693Z,18.80
2022-12-24T00:47:51.684Z,19.30
2022-12-24T00:50:55.374Z,19.52
2022-12-24T00:54:10.685Z,18.77
2022-12-24T00:57:25.717Z,18.33
2022-12-24T01:00:29.460Z,19.60
2022-12-24T01:03:44.840Z,19.37
2022-12-24T01:06:53.822Z,19.08
2022-12-24T01:10:09.872Z,20.05
2022-12-24T01:13:11.832Z,19.42
2022-12-24T01:16:26.878Z,20.20
2022-12-24T01:19:35.829Z,18.77
2022-12-24T01:22:50.796Z,19.42
2022-12-24T01:26:06.155Z,19.98
2022-12-24T01:29:20.779Z,19.27
2022-12-24T01:32:22.796Z,19.70
2022-12-24T01:35:37.914Z,20.20
2022-12-24T01:38:40.285Z,20.45
2022-12-24T01:41:54.753Z,20.52
2022-12-24T01:44:56.589Z,20.00
2022-12-24T01:48:15.793Z,20.60
2022-12-24T01:51:36.841Z,22.17
2022-12-24T01:54:59.728Z,19.85
2022-12-24T01:58:11.754Z,20.33
2022-12-24T02:01:26.986Z,20.90
2022-12-24T02:04:44.153Z,20.53
2022-12-24T02:07:59.760Z,20.07
2022-12-24T02:11:12.963Z,21.42
2022-12-24T02:14:22.763Z,22.08
2022-12-24T02:17:53.748Z,19.37
2022-12-24T02:21:28.768Z,21.33
2022-12-24T02:25:08.761Z,19.43
2022-12-24T02:28:46.800Z,19.48
2022-12-24T02:32:04.986Z,21.08
2022-12-24T02:35:37.753Z,19.48
2022-12-24T02:38:50.055Z,19.00
2022-12-24T02:42:06.820Z,18.70
2022-12-24T02:45:18.550Z,18.85
2022-12-24T02:48:36.859Z,18.55
2022-12-24T02:51:51.719Z,18.05
2022-12-24T02:54:53.693Z,19.20
2022-12-24T02:58:29.743Z,19.37
2022-12-24T03:02:07.893Z,18.08
2022-12-24T03:05:37.765Z,19.08
2022-12-24T03:08:55.090Z,18.23
2022-12-24T03:12:17.785Z,19.50
2022-12-24T03:15:28.782Z,17.90
2022-12-24T03:18:40.765Z,19.55
2022-12-24T03:21:49.771Z,18.23
2022-12-24T03:25:05.621Z,18.30
2022-12-24T03:28:15.850Z,17.40
2022-12-24T03:31:24.605Z,16.97
2022-12-24T03:34:40.865Z,18.52
2022-12-24T03:37:42.816Z,17.40
2022-12-24T03:41:01.836Z,18.73
2022-12-24T03:44:10.784Z,18.83
2022-12-24T03:47:19.517Z,16.50
2022-12-24T03:50:28.803Z,18.12
2022-12-24T03:53:37.380Z,18.35
2022-12-24T03:56:45.788Z,17.05
2022-12-24T04:00:00.897Z,16.53
2022-12-24T04:03:09.824Z,17.10
2022-12-24T04:06:24.887Z,17.42
2022-12-24T04:09:26.901Z,18.08
2022-12-24T04:12:42.856Z,17.55
2022-12-24T04:15:50.781Z,18.60
2022-12-24T04:18:59.542Z,17.47
2022-12-24T04:22:07.804Z,17.40
2022-12-24T04:25:23.172Z,17.35
2022-12-24T04:28:31.865Z,18.60
2022-12-24T04:31:40.660Z,17.53
2022-12-24T04:34:48.788Z,17.20
2022-12-24T04:38:04.943Z,17.85
2022-12-24T04:41:23.311Z,17.58
2022-12-24T04:44:32.548Z,16.90
2022-12-24T04:47:40.828Z,17.77
2022-12-24T04:50:56.847Z,17.80
2022-12-24T04:54:04.854Z,17.05
2022-12-24T04:57:13.456Z,18.20
2022-12-24T05:00:24.829Z,15.80
2022-12-24T05:03:34.591Z,16.17
2022-12-24T05:06:49.808Z,17.73
2022-12-24T05:10:04.962Z,16.83
2022-12-24T05:13:06.960Z,16.33
2022-12-24T05:16:23.864Z,16.40
2022-12-24T05:19:25.773Z,15.50
2022-12-24T05:22:40.842Z,15.40
2022-12-24T05:25:49.220Z,17.23
2022-12-24T05:29:05.924Z,15.95
2022-12-24T05:32:21.830Z,16.10
2022-12-24T05:35:30.518Z,15.93
2022-12-24T05:38:38.847Z,15.20
2022-12-24T05:41:53.964Z,15.93
2022-12-24T05:45:02.520Z,15.77
2022-12-24T05:48:16.924Z,16.48
2022-12-24T05:51:26.733Z,15.43
2022-12-24T05:54:34.868Z,15.23
2022-12-24T05:57:49.861Z,16.35
2022-12-24T06:00:53.681Z,15.55
2022-12-24T06:04:08.873Z,16.20
2022-12-24T06:07:10.944Z,15.10
2022-12-24T06:10:25.827Z,14.07
2022-12-24T06:13:28.548Z,14.82
2022-12-24T06:16:42.852Z,14.52
2022-12-24T06:19:44.769Z,15.55
2022-12-24T06:22:59.880Z,14.40
2022-12-24T06:26:09.465Z,13.90
2022-12-24T06:29:23.893Z,13.82
2022-12-24T06:32:32.641Z,14.27
2022-12-24T06:35:40.912Z,13.02
2022-12-24T06:38:50.818Z,12.77
2022-12-24T06:41:58.864Z,10.53
2022-12-24T06:45:14.951Z,10.52
2022-12-24T06:48:29.941Z,9.40
2022-12-24T06:51:38.580Z,7.70
2022-12-24T06:54:52.942Z,8.13
2022-12-24T06:58:01.915Z,6.73
2022-12-24T07:01:15.869Z,7.07
2022-12-24T07:04:30.922Z,7.35
2022-12-24T07:07:32.845Z,6.95
2022-12-24T07:10:54.938Z,9.03
2022-12-24T07:13:56.828Z,10.27
2022-12-24T07:17:12.075Z,9.85
2022-12-24T07:20:29.919Z,10.45
2022-12-24T07:23:31.794Z,10.75
2022-12-24T07:26:46.936Z,10.87
2022-12-24T07:30:01.905Z,11.27
2022-12-24T07:33:11.050Z,9.25
2022-12-24T07:36:25.953Z,8.95
2022-12-24T07:39:34.898Z,9.30
2022-12-24T07:42:42.949Z,9.17
2022-12-24T07:46:01.934Z,9.07
2022-12-24T07:49:04.086Z,8.93
2022-12-24T07:52:20.006Z,9.27
2022-12-24T07:55:30.207Z,9.52
2022-12-24T07:58:38.763Z,9.10
2022-12-24T08:01:48.175Z,9.27
2022-12-24T08:04:56.518Z,10.05
2022-12-24T08:08:04.923Z,8.43
2022-12-24T08:11:14.525Z,9.50
2022-12-24T08:14:28.976Z,8.60
2022-12-24T08:17:32.560Z,8.47
2022-12-24T08:20:48.998Z,8.27
2022-12-24T08:23:50.828Z,9.45
2022-12-24T08:27:05.956Z,8.73
2022-12-24T08:30:21.510Z,9.87
2022-12-24T08:33:37.909Z,9.23
2022-12-24T08:36:52.911Z,9.48
2022-12-24T08:39:55.044Z,9.20
2022-12-24T08:43:10.974Z,9.23
2022-12-24T08:46:13.027Z,9.47
2022-12-24T08:49:27.961Z,9.40
2022-12-24T08:52:37.240Z,8.90
2022-12-24T08:55:55.911Z,9.68
2022-12-24T08:59:05.035Z,10.85
2022-12-24T09:02:20.129Z,6.50
2022-12-24T09:05:22.236Z,4.03
2022-12-24T09:08:37.991Z,5.93
2022-12-24T09:11:39.884Z,4.25
2022-12-24T09:15:02.936Z,3.50
2022-12-24T09:18:05.784Z,3.03
2022-12-24T09:21:22.977Z,2.97
2022-12-24T09:24:25.159Z,3.20
2022-12-24T09:27:46.985Z,2.30
2022-12-24T09:31:07.036Z,2.60
2022-12-24T09:34:28.300Z,2.83
2022-12-24T09:37:47.201Z,2.60
2022-12-24T09:41:08.776Z,2.30
2022-12-24T09:44:29.080Z,3.03
2022-12-24T09:47:48.974Z,2.30
2022-12-24T09:51:17.110Z,3.20
2022-12-24T09:54:32.597Z,2.40
2022-12-24T09:57:46.020Z,2.05
2022-12-24T10:00:56.450Z,1.80
2022-12-24T10:04:10.993Z,1.73
2022-12-24T10:07:43.950Z,2.03
2022-12-24T10:10:53.772Z,2.23
2022-12-24T10:14:24.967Z,1.80
2022-12-24T10:17:45.211Z,1.80
2022-12-24T10:21:12.990Z,1.95
2022-12-24T10:24:27.537Z,1.77
2022-12-24T10:27:49.079Z,1.43
2022-12-24T10:31:03.191Z,1.90
2022-12-24T10:34:21.972Z,1.50
2022-12-24T10:37:30.901Z,2.20
2022-12-24T10:40:50.050Z,1.60
2022-12-24T10:44:02.733Z,1.90
2022-12-24T10:47:14.993Z,1.80
2022-12-24T10:50:39.013Z,1.50
2022-12-24T10:53:46.897Z,1.42
2022-12-24T10:57:06.089Z,1.40
2022-12-24T11:00:19.512Z,2.33
2022-12-24T11:03:41.127Z,1.75
2022-12-24T11:07:03.059Z,1.45
2022-12-24T11:10:08.722Z,2.10
2022-12-24T11:13:40.248Z,1.17
2022-12-24T11:16:54.234Z,1.33
2022-12-24T11:20:03.036Z,1.40
2022-12-24T11:23:24.012Z,1.02
2022-12-24T11:26:49.094Z,1.33
2022-12-24T11:30:19.378Z,1.20
2022-12-24T11:33:36.030Z,1.30
2022-12-24T11:36:37.907Z,1.50
2022-12-24T11:39:58.028Z,2.17
2022-12-24T11:43:14.854Z,1.70
2022-12-24T11:46:43.087Z,1.10
2022-12-24T11:50:17.210Z,1.10
2022-12-24T11:53:45.062Z,1.08
2022-12-24T11:56:51.236Z,0.80
2022-12-24T12:00:06.174Z,0.73
2022-12-24T12:03:37.646Z,1.10
2022-12-24T12:06:57.083Z,0.90
2022-12-24T12:10:35.056Z,0.90
2022-12-24T12:13:46.411Z,1.00
2022-12-24T12:17:05.036Z,1.02
2022-12-24T12:20:26.625Z,1.23
2022-12-24T12:23:41.121Z,1.13
2022-12-24T12:27:08.011Z,1.20
2022-12-24T12:30:27.089Z,0.77
2022-12-24T12:33:40.598Z,1.30
2022-12-24T12:37:00.038Z,1.10
2022-12-24T12:40:02.197Z,1.17
2022-12-24T12:43:48.057Z,1.27
2022-12-24T12:47:17.985Z,0.80
2022-12-24T12:50:44.077Z,1.00
2022-12-24T12:54:12.044Z,1.40
2022-12-24T12:57:33.093Z,0.97
2022-12-24T13:00:40.286Z,1.30
2022-12-24T13:04:25.193Z,1.12
2022-12-24T13:07:59.414Z,1.20
2022-12-24T13:11:31.090Z,1.00
2022-12-24T13:15:11.103Z,1.50
2022-12-24T13:18:41.501Z,0.98
2022-12-24T13:21:59.141Z,1.30
2022-12-24T13:25:28.133Z,1.00
2022-12-24T13:28:36.893Z,1.23
2022-12-24T13:31:45.235Z,1.00
2022-12-24T13:34:57.698Z,1.10
2022-12-24T13:38:46.135Z,1.30
2022-12-24T13:41:54.925Z,0.80
2022-12-24T13:45:33.122Z,1.30
2022-12-24T13:48:48.174Z,1.13
2022-12-24T13:51:50.052Z,2.00
2022-12-24T13:55:12.183Z,1.40
2022-12-24T13:58:18.705Z,1.50
2022-12-24T14:01:44.308Z,1.50
2022-12-24T14:04:51.339Z,1.80
2022-12-24T14:08:09.185Z,2.00
2022-12-24T14:11:16.655Z,1.40
2022-12-24T14:14:43.115Z,1.75
2022-12-24T14:17:55.111Z,1.63
2022-12-24T14:21:05.796Z,1.53
2022-12-24T14:24:22.165Z,1.17
2022-12-24T14:27:50.208Z,1.10
2022-12-24T14:31:03.147Z,1.42
2022-12-24T14:34:20.132Z,1.10
2022-12-24T14:37:34.558Z,2.13
2022-12-24T14:40:57.128Z,1.50
2022-12-24T14:44:29.702Z,1.50
2022-12-24T14:47:52.136Z,1.65
2022-12-24T14:51:24.175Z,1.40
2022-12-24T14:54:46.170Z,1.00
2022-12-24T14:58:21.190Z,1.58
2022-12-24T15:01:39.281Z,1.30
2022-12-24T15:04:48.139Z,1.62
2022-12-24T15:08:00.556Z,1.47
2022-12-24T15:11:12.190Z,1.50
2022-12-24T15:14:23.348Z,2.05
2022-12-24T15:17:33.177Z,1.73
2022-12-24T15:20:52.167Z,2.10
2022-12-24T15:23:54.125Z,2.10
2022-12-24T15:27:26.176Z,2.00
2022-12-24T15:30:30.888Z,2.33
2022-12-24T15:33:46.184Z,1.40
2022-12-24T15:36:54.160Z,1.52
2022-12-24T15:40:22.611Z,1.93
2022-12-24T15:43:32.200Z,4.83
2022-12-24T15:46:40.985Z,3.50
2022-12-24T15:49:55.249Z,3.03
2022-12-24T15:53:18.693Z,2.45
2022-12-24T15:56:47.214Z,2.70
2022-12-24T16:00:02.235Z,3.13
2022-12-24T16:03:17.638Z,2.53
2022-12-24T16:06:27.192Z,2.00
2022-12-24T16:09:42.469Z,2.12
2022-12-24T16:12:51.303Z,2.83
2022-12-24T16:16:05.012Z,2.50
2022-12-24T16:19:22.168Z,2.70
2022-12-24T16:22:32.048Z,2.30
2022-12-24T16:25:54.269Z,2.22
2022-12-24T16:29:02.821Z,2.47
2022-12-24T16:32:34.188Z,2.23
2022-12-24T16:35:42.205Z,2.62
2022-12-24T16:38:57.230Z,2.87
2022-12-24T16:42:08.235Z,2.42
2022-12-24T16:45:23.284Z,3.20
2022-12-24T16:48:32.234Z,3.00
2022-12-24T16:51:40.833Z,3.58
2022-12-24T16:54:49.273Z,2.00
2022-12-24T16:58:05.291Z,3.33
2022-12-24T17:01:08.748Z,2.20
2022-12-24T17:04:25.258Z,2.10
2022-12-24T17:07:27.182Z,2.42
2022-12-24T17:10:43.238Z,2.00
2022-12-24T17:13:45.121Z,2.00
2022-12-24T17:17:00.323Z,2.83
2022-12-24T17:20:09.280Z,2.90
2022-12-24T17:23:24.262Z,2.15
2022-12-24T17:26:32.648Z,2.67
2022-12-24T17:29:48.225Z,2.50
2022-12-24T17:33:03.281Z,2.20
2022-12-24T17:36:11.950Z,2.27
2022-12-24T17:39:27.497Z,2.60
2022-12-24T17:42:42.260Z,2.20
2022-12-24T17:45:50.271Z,2.60
2022-12-24T17:48:58.984Z,2.03
2022-12-24T17:52:07.303Z,2.70
2022-12-24T17:55:22.260Z,3.25
2022-12-24T17:58:24.237Z,2.75
2022-12-24T18:01:39.382Z,3.40
2022-12-24T18:04:54.268Z,3.10
2022-12-24T18:07:56.145Z,2.53
2022-12-24T18:11:22.253Z,2.47
2022-12-24T18:14:37.264Z,2.95
2022-12-24T18:17:45.345Z,3.05
2022-12-24T18:21:00.322Z,3.80
2022-12-24T18:24:22.340Z,3.40
2022-12-24T18:27:30.953Z,3.37
2022-12-24T18:30:45.294Z,3.05
2022-12-24T18:33:55.014Z,4.25
2022-12-24T18:37:03.333Z,3.47
2022-12-24T18:40:12.320Z,4.03
2022-12-24T18:43:20.428Z,3.70
2022-12-24T18:46:39.319Z,3.90
2022-12-24T18:49:41.204Z,3.97
2022-12-24T18:52:57.505Z,4.90
2022-12-24T18:56:05.423Z,4.27
2022-12-24T18:59:20.298Z,5.62
2022-12-24T19:02:24.096Z,4.25
2022-12-24T19:05:39.301Z,3.55
2022-12-24T19:08:57.868Z,3.77
2022-12-24T19:12:14.281Z,4.10
2022-12-24T19:15:23.006Z,3.72
2022-12-24T19:18:38.345Z,4.50
2022-12-24T19:21:40.277Z,4.07
2022-12-24T19:24:56.369Z,4.37
2022-12-24T19:28:04.850Z,3.93
2022-12-24T19:31:24.396Z,4.43
2022-12-24T19:34:39.329Z,4.10
2022-12-24T19:37:41.280Z,4.57
2022-12-24T19:40:56.346Z,4.60
2022-12-24T19:44:05.120Z,4.70
2022-12-24T19:47:13.283Z,5.37
2022-12-24T19:50:22.177Z,4.40
2022-12-24T19:53:30.300Z,5.68
2022-12-24T19:56:39.965Z,6.47
2022-12-24T19:59:48.343Z,5.50
2022-12-24T20:03:03.401Z,6.80
2022-12-24T20:06:05.769Z,5.90
2022-12-24T20:09:21.361Z,5.60
2022-12-24T20:12:29.973Z,5.70
2022-12-24T20:15:38.369Z,5.13
2022-12-24T20:19:00.461Z,6.18
2022-12-24T20:22:09.575Z,6.90
2022-12-24T20:25:24.886Z,6.50
2022-12-24T20:28:35.541Z,6.80
2022-12-24T20:31:44.450Z,6.23
2022-12-24T20:34:52.357Z,7.78
2022-12-24T20:38:07.344Z,7.90
2022-12-24T20:41:25.480Z,8.00
2022-12-24T20:44:34.087Z,8.03
2022-12-24T20:47:42.372Z,8.40
2022-12-24T20:50:51.625Z,7.95
2022-12-24T20:54:07.393Z,8.25
2022-12-24T20:57:20.241Z,7.70
2022-12-24T21:00:31.443Z,8.63
2022-12-24T21:03:40.271Z,8.07
2022-12-24T21:06:55.398Z,7.30
2022-12-24T21:10:11.371Z,7.30
2022-12-24T21:13:16.421Z,8.15
2022-12-24T21:16:31.486Z,8.10
2022-12-24T21:19:40.429Z,6.67
2022-12-24T21:22:48.921Z,6.53
2022-12-24T21:26:07.395Z,7.62
2022-12-24T21:29:29.350Z,7.62
2022-12-24T21:32:31.327Z,7.33
2022-12-24T21:35:46.405Z,8.23
2022-12-24T21:38:48.705Z,8.15
2022-12-24T21:42:03.354Z,7.57
2022-12-24T21:45:12.498Z,7.87
2022-12-24T21:48:28.449Z,7.43
2022-12-24T21:51:31.028Z,8.07
2022-12-24T21:54:45.369Z,8.02
2022-12-24T21:57:53.407Z,7.72
2022-12-24T22:01:11.238Z,8.80
2022-12-24T22:04:26.415Z,8.20
2022-12-24T22:07:35.400Z,7.70
2022-12-24T22:10:50.420Z,7.87
2022-12-24T22:13:52.239Z,7.62
2022-12-24T22:17:07.546Z,7.72
2022-12-24T22:20:09.947Z,7.67
2022-12-24T22:23:25.394Z,8.53
2022-12-24T22:26:33.684Z,8.02
2022-12-24T22:29:48.409Z,7.60
2022-12-24T22:32:50.398Z,8.10
2022-12-24T22:36:05.418Z,8.77
2022-12-24T22:39:13.410Z,7.53
2022-12-24T22:42:22.055Z,7.57
2022-12-24T22:45:30.402Z,7.60
2022-12-24T22:48:40.524Z,7.62
2022-12-24T22:51:49.588Z,7.63
2022-12-24T22:55:04.447Z,8.13
2022-12-24T22:58:13.448Z,8.13
2022-12-24T23:01:33.179Z,7.87
2022-12-24T23:04:44.452Z,7.75
2022-12-24T23:07:59.448Z,7.20
2022-12-24T23:11:12.017Z,7.40
2022-12-24T23:14:28.431Z,6.82
2022-12-24T23:17:30.313Z,7.43
2022-12-24T23:20:48.432Z,7.45
2022-12-24T23:23:50.780Z,6.70
2022-12-24T23:27:07.454Z,7.33
2022-12-24T23:30:16.492Z,6.97
2022-12-24T23:33:26.758Z,5.90
2022-12-24T23:36:41.457Z,6.55
2022-12-24T23:39:43.422Z,6.53
2022-12-24T23:42:58.465Z,6.20
2022-12-24T23:46:07.498Z,6.03
2022-12-24T23:49:16.206Z,6.43
2022-12-24T23:52:30.489Z,6.68
2022-12-24T23:55:39.922Z,6.53
2022-12-24T23:58:49.490Z,6.50
